createdAt,value
2018-01-14T00:00:01.948Z,7.70
2018-01-14T00:01:01.942Z,8.10
2018-01-14T00:02:01.935Z,8.30
2018-01-14T00:03:01.927Z,7.70
2018-01-14T00:04:01.920Z,8.00
2018-01-14T00:05:01.916Z,7.70
2018-01-14T00:06:01.908Z,8.20
2018-01-14T00:07:01.903Z,8.20
2018-01-14T00:08:01.895Z,8.70
2018-01-14T00:09:01.888Z,8.20
2018-01-14T00:10:01.882Z,9.30
2018-01-14T00:11:01.875Z,8.00
2018-01-14T00:12:01.868Z,8.30
2018-01-14T00:13:01.862Z,8.40
2018-01-14T00:14:01.855Z,7.80
2018-01-14T00:15:01.849Z,8.40
2018-01-14T00:16:01.842Z,7.90
2018-01-14T00:17:01.834Z,8.20
2018-01-14T00:18:01.827Z,8.40
2018-01-14T00:19:01.824Z,8.50
2018-01-14T00:20:01.813Z,9.00
2018-01-14T00:21:01.807Z,8.50
2018-01-14T00:22:01.803Z,8.30
2018-01-14T00:23:01.795Z,8.40
2018-01-14T00:24:01.787Z,9.10
2018-01-14T00:25:01.780Z,9.10
2018-01-14T00:26:01.773Z,8.50
2018-01-14T00:27:01.766Z,9.10
2018-01-14T00:28:01.760Z,8.10
2018-01-14T00:29:01.752Z,8.70
2018-01-14T00:30:01.745Z,9.20
2018-01-14T00:31:01.739Z,9.30
2018-01-14T00:32:01.732Z,8.40
2018-01-14T00:33:01.728Z,8.90
2018-01-14T00:34:01.717Z,8.30
2018-01-14T00:35:01.713Z,7.50
2018-01-14T00:36:01.704Z,7.20
2018-01-14T00:37:01.696Z,7.00
2018-01-14T00:38:01.690Z,7.50
2018-01-14T00:39:01.684Z,7.40
2018-01-14T00:40:01.676Z,7.40
2018-01-14T00:41:01.668Z,7.20
2018-01-14T00:42:01.661Z,7.70
2018-01-14T00:43:01.655Z,8.30
2018-01-14T00:44:01.648Z,7.10
2018-01-14T00:45:01.641Z,7.50
2018-01-14T00:46:01.634Z,7.40
2018-01-14T00:47:01.628Z,7.40
2018-01-14T00:48:01.620Z,6.90
2018-01-14T00:49:01.613Z,7.10
2018-01-14T00:50:01.606Z,6.90
2018-01-14T00:51:01.600Z,8.00
2018-01-14T00:52:01.593Z,7.50
2018-01-14T00:53:01.586Z,8.60
2018-01-14T00:54:01.580Z,7.40
2018-01-14T00:55:01.572Z,7.30
2018-01-14T00:56:01.564Z,8.10
2018-01-14T00:57:01.558Z,7.20
2018-01-14T00:58:01.551Z,7.00
2018-01-14T00:59:01.544Z,6.50
2018-01-14T01:00:01.540Z,7.30
2018-01-14T01:01:01.536Z,7.40
2018-01-14T01:02:01.524Z,7.70
2018-01-14T01:03:01.518Z,6.30
2018-01-14T01:04:01.509Z,7.60
2018-01-14T01:05:01.504Z,7.10
2018-01-14T01:06:01.496Z,7.40
2018-01-14T01:07:01.489Z,7.70
2018-01-14T01:08:01.482Z,7.40
2018-01-14T01:09:01.475Z,7.50
2018-01-14T01:10:01.469Z,8.90
2018-01-14T01:11:01.462Z,7.50
2018-01-14T01:12:01.455Z,7.60
2018-01-14T01:13:01.448Z,7.40
2018-01-14T01:14:01.441Z,6.80
2018-01-14T01:15:01.433Z,7.50
2018-01-14T01:16:01.426Z,7.50
2018-01-14T01:17:01.427Z,7.00
2018-01-14T01:18:01.413Z,7.00
2018-01-14T01:19:01.405Z,7.30
2018-01-14T01:20:01.398Z,6.70
2018-01-14T01:21:01.391Z,7.10
2018-01-14T01:22:01.386Z,7.00
2018-01-14T01:23:01.377Z,8.30
2018-01-14T01:24:01.369Z,7.40
2018-01-14T01:25:01.362Z,7.60
2018-01-14T01:26:01.355Z,7.10
2018-01-14T01:27:01.348Z,7.20
2018-01-14T01:28:01.340Z,6.90
2018-01-14T01:29:01.333Z,7.90
2018-01-14T01:30:01.326Z,7.30
2018-01-14T01:31:01.319Z,7.30
2018-01-14T01:32:01.312Z,7.40
2018-01-14T01:33:01.305Z,6.90
2018-01-14T01:34:01.298Z,6.80
2018-01-14T01:35:01.289Z,7.80
2018-01-14T01:36:01.283Z,7.30
2018-01-14T01:37:01.276Z,6.80
2018-01-14T01:38:01.269Z,7.60
2018-01-14T01:39:01.262Z,6.90
2018-01-14T01:40:01.258Z,7.00
2018-01-14T01:41:01.247Z,7.30
2018-01-14T01:42:01.239Z,6.60
2018-01-14T01:43:01.232Z,6.70
2018-01-14T01:44:01.225Z,6.50
2018-01-14T01:45:01.216Z,6.70
2018-01-14T01:46:01.211Z,6.40
2018-01-14T01:47:01.204Z,6.40
2018-01-14T01:48:01.197Z,6.60
2018-01-14T01:49:01.187Z,6.60
2018-01-14T01:50:01.184Z,7.10
2018-01-14T01:51:01.174Z,7.30
2018-01-14T01:52:01.167Z,6.90
2018-01-14T01:53:01.158Z,7.20
2018-01-14T01:54:01.151Z,6.40
2018-01-14T01:55:01.145Z,7.40
2018-01-14T01:56:01.136Z,7.20
2018-01-14T01:57:01.132Z,7.10
2018-01-14T01:58:01.122Z,7.10
2018-01-14T01:59:01.116Z,7.00
2018-01-14T02:00:01.107Z,7.10
2018-01-14T02:01:01.102Z,7.00
2018-01-14T02:02:01.095Z,6.60
2018-01-14T02:03:01.087Z,7.30
2018-01-14T02:04:01.079Z,7.30
2018-01-14T02:05:01.071Z,6.70
2018-01-14T02:06:01.064Z,7.00
2018-01-14T02:07:01.057Z,6.90
2018-01-14T02:08:01.049Z,7.00
2018-01-14T02:09:01.042Z,6.60
2018-01-14T02:10:01.035Z,6.30
2018-01-14T02:11:01.028Z,6.90
2018-01-14T02:12:01.020Z,6.70
2018-01-14T02:13:01.014Z,6.90
2018-01-14T02:14:01.006Z,6.70
2018-01-14T02:15:01.000Z,6.70
2018-01-14T02:16:00.991Z,6.90
2018-01-14T02:17:00.984Z,7.00
2018-01-14T02:18:00.979Z,6.60
2018-01-14T02:19:00.971Z,7.00
2018-01-14T02:20:00.963Z,6.90
2018-01-14T02:21:00.955Z,6.20
2018-01-14T02:22:00.950Z,6.20
2018-01-14T02:23:00.941Z,6.50
2018-01-14T02:24:00.936Z,6.10
2018-01-14T02:25:00.932Z,6.10
2018-01-14T02:26:00.919Z,6.00
2018-01-14T02:27:00.912Z,5.50
2018-01-14T02:28:00.906Z,6.00
2018-01-14T02:29:00.898Z,6.20
2018-01-14T02:30:00.892Z,6.00
2018-01-14T02:31:00.884Z,5.80
2018-01-14T02:32:00.877Z,6.70
2018-01-14T02:33:00.870Z,6.30
2018-01-14T02:34:00.864Z,6.40
2018-01-14T02:35:00.857Z,6.50
2018-01-14T02:36:00.848Z,6.60
2018-01-14T02:37:00.843Z,7.00
2018-01-14T02:38:00.835Z,6.50
2018-01-14T02:39:00.833Z,6.20
2018-01-14T02:40:00.821Z,7.40
2018-01-14T02:41:00.814Z,6.10
2018-01-14T02:42:00.809Z,6.60
2018-01-14T02:43:00.800Z,6.20
2018-01-14T02:44:00.792Z,5.70
2018-01-14T02:45:00.786Z,6.10
2018-01-14T02:46:00.778Z,5.60
2018-01-14T02:47:00.772Z,6.30
2018-01-14T02:48:00.763Z,5.70
2018-01-14T02:49:00.756Z,5.80
2018-01-14T02:50:00.751Z,5.70
2018-01-14T02:51:00.745Z,5.80
2018-01-14T02:52:00.736Z,6.10
2018-01-14T02:53:00.731Z,6.00
2018-01-14T02:54:00.728Z,6.00
2018-01-14T02:55:00.717Z,5.30
2018-01-14T02:56:00.709Z,5.80
2018-01-14T02:57:00.701Z,5.50
2018-01-14T02:58:00.696Z,5.60
2018-01-14T02:59:00.688Z,5.40
2018-01-14T03:00:00.681Z,6.00
2018-01-14T03:01:00.673Z,5.80
2018-01-14T03:02:00.669Z,5.60
2018-01-14T03:03:00.659Z,6.00
2018-01-14T03:04:00.659Z,6.30
2018-01-14T03:05:00.644Z,5.50
2018-01-14T03:06:00.637Z,6.20
2018-01-14T03:07:00.633Z,5.80
2018-01-14T03:08:00.624Z,6.20
2018-01-14T03:09:00.616Z,6.20
2018-01-14T03:10:00.610Z,6.10
2018-01-14T03:11:00.603Z,6.40
2018-01-14T03:12:00.595Z,6.40
2018-01-14T03:13:00.589Z,6.00
2018-01-14T03:14:00.583Z,6.10
2018-01-14T03:15:00.575Z,6.20
2018-01-14T03:16:00.567Z,6.00
2018-01-14T03:17:00.562Z,5.20
2018-01-14T03:18:00.555Z,5.50
2018-01-14T03:19:00.550Z,5.90
2018-01-14T03:20:00.539Z,6.00
2018-01-14T03:21:00.533Z,5.70
2018-01-14T03:22:00.526Z,5.30
2018-01-14T03:23:00.519Z,5.80
2018-01-14T03:24:00.512Z,5.60
2018-01-14T03:25:00.503Z,5.10
2018-01-14T03:26:00.497Z,5.90
2018-01-14T03:27:00.490Z,5.50
2018-01-14T03:28:00.482Z,6.10
2018-01-14T03:29:00.475Z,5.30
2018-01-14T03:30:00.468Z,5.80
2018-01-14T03:31:00.462Z,5.90
2018-01-14T03:32:00.453Z,5.80
2018-01-14T03:33:00.448Z,5.10
2018-01-14T03:34:00.440Z,5.30
2018-01-14T03:35:00.434Z,4.60
2018-01-14T03:36:00.428Z,5.60
2018-01-14T03:37:00.418Z,5.10
2018-01-14T03:38:00.411Z,5.60
2018-01-14T03:39:00.412Z,5.70
2018-01-14T03:40:00.449Z,5.60
2018-01-14T03:41:00.391Z,6.10
2018-01-14T03:42:00.384Z,5.10
2018-01-14T03:43:00.377Z,5.10
2018-01-14T03:44:00.369Z,5.50
2018-01-14T03:45:00.362Z,5.10
2018-01-14T03:46:00.358Z,4.80
2018-01-14T03:47:00.347Z,5.40
2018-01-14T03:48:00.339Z,5.00
2018-01-14T03:49:00.333Z,4.90
2018-01-14T03:50:00.326Z,5.70
2018-01-14T03:51:00.318Z,5.30
2018-01-14T03:52:00.312Z,5.50
2018-01-14T03:53:00.304Z,4.50
2018-01-14T03:54:00.298Z,5.40
2018-01-14T03:55:00.289Z,4.80
2018-01-14T03:56:00.282Z,5.00
2018-01-14T03:57:00.275Z,5.20
2018-01-14T03:58:00.267Z,4.70
2018-01-14T03:59:00.262Z,4.90
2018-01-14T04:00:00.253Z,5.60
2018-01-14T04:01:00.245Z,4.90
2018-01-14T04:02:00.239Z,5.10
2018-01-14T04:03:00.232Z,6.50
2018-01-14T04:04:00.225Z,5.30
2018-01-14T04:05:00.216Z,5.30
2018-01-14T04:06:00.210Z,5.80
2018-01-14T04:07:00.204Z,5.40
2018-01-14T04:08:00.195Z,5.70
2018-01-14T04:09:00.187Z,5.30
2018-01-14T04:10:00.181Z,5.80
2018-01-14T04:11:00.175Z,5.50
2018-01-14T04:12:00.166Z,4.90
2018-01-14T04:13:00.159Z,4.70
2018-01-14T04:14:00.151Z,5.60
2018-01-14T04:15:00.146Z,5.00
2018-01-14T04:16:00.137Z,5.70
2018-01-14T04:17:00.129Z,5.20
2018-01-14T04:18:00.123Z,5.30
2018-01-14T04:19:00.116Z,5.70
2018-01-14T04:20:00.107Z,5.00
2018-01-14T04:21:00.101Z,5.60
2018-01-14T04:22:00.094Z,5.10
2018-01-14T04:23:00.086Z,5.20
2018-01-14T04:24:00.080Z,5.20
2018-01-14T04:25:00.074Z,5.10
2018-01-14T04:26:00.064Z,4.60
2018-01-14T04:27:00.058Z,5.80
2018-01-14T04:28:00.050Z,6.50
2018-01-14T04:29:00.043Z,5.10
2018-01-14T04:30:00.045Z,5.20
2018-01-14T04:31:00.029Z,6.30
2018-01-14T04:32:00.025Z,5.80
2018-01-14T04:33:00.014Z,5.90
2018-01-14T04:34:00.006Z,5.90
2018-01-14T04:35:00.002Z,5.40
2018-01-14T04:35:59.991Z,5.90
2018-01-14T04:36:59.983Z,5.40
2018-01-14T04:37:59.976Z,5.40
2018-01-14T04:38:59.970Z,5.50
2018-01-14T04:39:59.961Z,6.60
2018-01-14T04:40:59.954Z,5.30
2018-01-14T04:41:59.948Z,5.50
2018-01-14T04:42:59.940Z,5.60
2018-01-14T04:43:59.933Z,5.80
2018-01-14T04:44:59.925Z,5.30
2018-01-14T04:45:59.917Z,5.80
2018-01-14T04:46:59.910Z,5.30
2018-01-14T04:47:59.901Z,4.90
2018-01-14T04:48:59.894Z,5.80
2018-01-14T04:49:59.888Z,5.30
2018-01-14T04:50:59.881Z,5.70
2018-01-14T04:51:59.873Z,5.60
2018-01-14T04:52:59.867Z,6.20
2018-01-14T04:53:59.858Z,5.30
2018-01-14T04:54:59.852Z,6.00
2018-01-14T04:55:59.844Z,6.10
2018-01-14T04:56:59.837Z,6.10
2018-01-14T04:57:59.829Z,5.90
2018-01-14T04:58:59.823Z,4.80
2018-01-14T04:59:59.814Z,5.50
2018-01-14T05:00:59.808Z,4.90
2018-01-14T05:01:59.801Z,5.50
2018-01-14T05:02:59.793Z,5.70
2018-01-14T05:03:59.784Z,5.10
2018-01-14T05:04:59.779Z,5.30
2018-01-14T05:05:59.770Z,5.40
2018-01-14T05:06:59.764Z,5.40
2018-01-14T05:07:59.757Z,5.30
2018-01-14T05:08:59.747Z,5.20
2018-01-14T05:09:59.741Z,5.30
2018-01-14T05:10:59.770Z,5.20
2018-01-14T05:11:59.725Z,5.70
2018-01-14T05:12:59.719Z,5.30
2018-01-14T05:13:59.711Z,5.40
2018-01-14T05:14:59.707Z,5.80
2018-01-14T05:15:59.696Z,5.70
2018-01-14T05:16:59.690Z,5.20
2018-01-14T05:17:59.681Z,5.20
2018-01-14T05:18:59.674Z,5.00
2018-01-14T05:19:59.667Z,5.70
2018-01-14T05:20:59.660Z,5.70
2018-01-14T05:21:59.653Z,5.80
2018-01-14T05:22:59.646Z,5.50
2018-01-14T05:23:59.636Z,5.60
2018-01-14T05:24:59.629Z,5.60
2018-01-14T05:25:59.623Z,5.50
2018-01-14T05:26:59.619Z,4.80
2018-01-14T05:27:59.606Z,6.60
2018-01-14T05:28:59.599Z,5.10
2018-01-14T05:29:59.592Z,4.90
2018-01-14T05:30:59.585Z,5.70
2018-01-14T05:31:59.577Z,5.50
2018-01-14T05:32:59.570Z,5.60
2018-01-14T05:33:59.564Z,5.90
2018-01-14T05:34:59.557Z,5.50
2018-01-14T05:35:59.549Z,6.00
2018-01-14T05:36:59.541Z,5.20
2018-01-14T05:37:59.534Z,5.40
2018-01-14T05:38:59.527Z,5.60
2018-01-14T05:39:59.519Z,5.10
2018-01-14T05:40:59.512Z,5.10
2018-01-14T05:41:59.503Z,5.50
2018-01-14T05:42:59.500Z,6.00
2018-01-14T05:43:59.489Z,5.30
2018-01-14T05:44:59.480Z,5.90
2018-01-14T05:45:59.473Z,5.50
2018-01-14T05:46:59.466Z,5.20
2018-01-14T05:47:59.460Z,5.20
2018-01-14T05:48:59.457Z,5.40
2018-01-14T05:49:59.444Z,5.00
2018-01-14T05:50:59.435Z,5.30
2018-01-14T05:51:59.428Z,5.40
2018-01-14T05:52:59.422Z,4.90
2018-01-14T05:53:59.413Z,4.70
2018-01-14T05:54:59.407Z,4.50
2018-01-14T05:55:59.398Z,4.80
2018-01-14T05:56:59.392Z,5.00
2018-01-14T05:57:59.384Z,5.20
2018-01-14T05:58:59.378Z,4.00
2018-01-14T05:59:59.368Z,5.30
2018-01-14T06:00:59.363Z,4.00
2018-01-14T06:01:59.355Z,4.60
2018-01-14T06:02:59.348Z,4.50
2018-01-14T06:03:59.340Z,4.10
2018-01-14T06:04:59.333Z,5.30
2018-01-14T06:05:59.325Z,4.20
2018-01-14T06:06:59.318Z,4.70
2018-01-14T06:07:59.311Z,4.60
2018-01-14T06:08:59.303Z,4.80
2018-01-14T06:09:59.296Z,4.40
2018-01-14T06:10:59.288Z,5.10
2018-01-14T06:11:59.280Z,4.50
2018-01-14T06:12:59.273Z,5.20
2018-01-14T06:13:59.266Z,4.40
2018-01-14T06:14:59.259Z,5.30
2018-01-14T06:15:59.251Z,4.70
2018-01-14T06:16:59.244Z,5.00
2018-01-14T06:17:59.240Z,5.50
2018-01-14T06:18:59.230Z,4.90
2018-01-14T06:19:59.222Z,5.60
2018-01-14T06:20:59.215Z,5.30
2018-01-14T06:21:59.207Z,5.60
2018-01-14T06:22:59.201Z,5.90
2018-01-14T06:23:59.192Z,5.70
2018-01-14T06:24:59.185Z,6.20
2018-01-14T06:25:59.178Z,6.10
2018-01-14T06:26:59.170Z,6.30
2018-01-14T06:27:59.162Z,5.80
2018-01-14T06:28:59.155Z,5.50
2018-01-14T06:29:59.148Z,5.00
2018-01-14T06:30:59.141Z,6.20
2018-01-14T06:31:59.132Z,6.30
2018-01-14T06:32:59.127Z,5.70
2018-01-14T06:33:59.121Z,5.00
2018-01-14T06:34:59.114Z,4.30
2018-01-14T06:35:59.102Z,5.90
2018-01-14T06:36:59.100Z,4.50
2018-01-14T06:37:59.090Z,4.60
2018-01-14T06:38:59.081Z,4.80
2018-01-14T06:39:59.074Z,5.60
2018-01-14T06:40:59.065Z,5.00
2018-01-14T06:41:59.058Z,5.30
2018-01-14T06:42:59.052Z,4.90
2018-01-14T06:43:59.045Z,5.00
2018-01-14T06:44:59.037Z,5.20
2018-01-14T06:45:59.029Z,4.70
2018-01-14T06:46:59.023Z,5.50
2018-01-14T06:47:59.014Z,5.90
2018-01-14T06:48:59.007Z,5.10
2018-01-14T06:49:58.999Z,5.00
2018-01-14T06:50:58.999Z,5.40
2018-01-14T06:51:58.985Z,6.10
2018-01-14T06:52:58.982Z,5.40
2018-01-14T06:53:58.970Z,5.20
2018-01-14T06:54:58.962Z,5.70
2018-01-14T06:55:58.955Z,5.10
2018-01-14T06:56:58.948Z,5.00
2018-01-14T06:57:58.940Z,4.90
2018-01-14T06:58:58.935Z,5.60
2018-01-14T06:59:58.926Z,5.30
2018-01-14T07:00:58.929Z,5.80
2018-01-14T07:01:58.917Z,5.20
2018-01-14T07:02:58.905Z,5.90
2018-01-14T07:03:58.898Z,6.20
2018-01-14T07:04:58.889Z,5.50
2018-01-14T07:05:58.882Z,6.10
2018-01-14T07:06:58.874Z,6.50
2018-01-14T07:07:58.867Z,6.90
2018-01-14T07:08:58.859Z,6.40
2018-01-14T07:09:58.852Z,6.20
2018-01-14T07:10:58.845Z,6.70
2018-01-14T07:11:58.838Z,7.00
2018-01-14T07:12:58.831Z,6.80
2018-01-14T07:13:58.824Z,7.80
2018-01-14T07:14:58.816Z,8.00
2018-01-14T07:15:58.807Z,9.30
2018-01-14T07:16:58.800Z,10.60
2018-01-14T07:17:58.793Z,8.80
2018-01-14T07:18:58.785Z,7.40
2018-01-14T07:19:58.778Z,6.70
2018-01-14T07:20:58.771Z,6.80
2018-01-14T07:21:58.762Z,6.50
2018-01-14T07:22:58.755Z,6.60
2018-01-14T07:23:58.748Z,6.40
2018-01-14T07:24:58.740Z,6.20
2018-01-14T07:25:58.734Z,6.60
2018-01-14T07:26:58.727Z,6.30
2018-01-14T07:27:58.718Z,5.90
2018-01-14T07:28:58.710Z,6.20
2018-01-14T07:29:58.704Z,6.60
2018-01-14T07:30:58.698Z,6.50
2018-01-14T07:31:58.687Z,6.60
2018-01-14T07:32:58.681Z,6.30
2018-01-14T07:33:58.673Z,5.60
2018-01-14T07:34:58.666Z,6.20
2018-01-14T07:35:58.658Z,5.70
2018-01-14T07:36:58.651Z,5.50
2018-01-14T07:37:58.645Z,6.20
2018-01-14T07:38:58.637Z,6.50
2018-01-14T07:39:58.628Z,5.80
2018-01-14T07:40:58.621Z,5.30
2018-01-14T07:41:58.615Z,5.90
2018-01-14T07:42:58.608Z,6.40
2018-01-14T07:43:58.602Z,5.80
2018-01-14T07:44:58.592Z,6.10
2018-01-14T07:45:58.585Z,6.30
2018-01-14T07:46:58.577Z,6.30
2018-01-14T07:47:58.570Z,5.90
2018-01-14T07:48:58.562Z,5.70
2018-01-14T07:49:58.555Z,6.20
2018-01-14T07:50:58.548Z,6.10
2018-01-14T07:51:58.540Z,6.20
2018-01-14T07:52:58.532Z,6.00
2018-01-14T07:53:58.526Z,5.40
2018-01-14T07:54:58.519Z,5.50
2018-01-14T07:55:58.511Z,4.80
2018-01-14T07:56:58.503Z,5.30
2018-01-14T07:57:58.495Z,5.30
2018-01-14T07:58:58.489Z,4.60
2018-01-14T07:59:58.481Z,4.50
2018-01-14T08:00:58.473Z,5.70
2018-01-14T08:01:58.466Z,6.30
2018-01-14T08:02:58.459Z,5.60
2018-01-14T08:03:58.452Z,5.70
2018-01-14T08:04:58.444Z,5.80
2018-01-14T08:05:58.437Z,5.50
2018-01-14T08:06:58.431Z,6.20
2018-01-14T08:07:58.421Z,5.70
2018-01-14T08:08:58.415Z,5.40
2018-01-14T08:09:58.407Z,5.70
2018-01-14T08:10:58.400Z,5.80
2018-01-14T08:11:58.393Z,5.90
2018-01-14T08:12:58.385Z,5.70
2018-01-14T08:13:58.378Z,5.90
2018-01-14T08:14:58.371Z,6.00
2018-01-14T08:15:58.379Z,6.40
2018-01-14T08:16:58.356Z,6.40
2018-01-14T08:17:58.348Z,5.70
2018-01-14T08:18:58.341Z,7.90
2018-01-14T08:19:58.333Z,6.70
2018-01-14T08:20:58.327Z,6.30
2018-01-14T08:21:58.319Z,6.90
2018-01-14T08:22:58.313Z,7.60
2018-01-14T08:23:58.306Z,8.10
2018-01-14T08:24:58.298Z,9.00
2018-01-14T08:25:58.291Z,9.10
2018-01-14T08:26:58.284Z,9.30
2018-01-14T08:27:58.275Z,9.00
2018-01-14T08:28:58.269Z,8.40
2018-01-14T08:29:58.262Z,8.00
2018-01-14T08:30:58.255Z,7.40
2018-01-14T08:31:58.246Z,7.30
2018-01-14T08:32:58.240Z,6.60
2018-01-14T08:33:58.232Z,6.70
2018-01-14T08:34:58.225Z,7.50
2018-01-14T08:35:58.235Z,6.70
2018-01-14T08:36:58.212Z,6.90
2018-01-14T08:37:58.203Z,6.90
2018-01-14T08:38:58.197Z,6.40
2018-01-14T08:39:58.190Z,7.30
2018-01-14T08:40:58.182Z,7.20
2018-01-14T08:41:58.175Z,8.70
2018-01-14T08:42:58.169Z,8.30
2018-01-14T08:43:58.159Z,7.90
2018-01-14T08:44:58.153Z,8.30
2018-01-14T08:45:58.146Z,8.70
2018-01-14T08:46:58.140Z,8.80
2018-01-14T08:47:58.130Z,8.60
2018-01-14T08:48:58.123Z,8.70
2018-01-14T08:49:58.117Z,9.40
2018-01-14T08:50:58.109Z,9.20
2018-01-14T08:51:58.105Z,8.40
2018-01-14T08:52:58.095Z,7.70
2018-01-14T08:53:58.088Z,8.20
2018-01-14T08:54:58.083Z,7.10
2018-01-14T08:55:58.073Z,6.50
2018-01-14T08:56:58.067Z,6.50
2018-01-14T08:57:58.059Z,7.30
2018-01-14T08:58:58.053Z,6.70
2018-01-14T08:59:58.045Z,6.50
2018-01-14T09:00:58.038Z,6.70
2018-01-14T09:01:58.031Z,7.60
2018-01-14T09:02:58.025Z,7.00
2018-01-14T09:03:58.016Z,7.00
2018-01-14T09:04:58.014Z,7.50
2018-01-14T09:05:58.003Z,7.20
2018-01-14T09:06:57.996Z,8.00
2018-01-14T09:07:57.988Z,7.70
2018-01-14T09:08:57.981Z,6.50
2018-01-14T09:09:57.975Z,7.80
2018-01-14T09:10:57.968Z,6.80
2018-01-14T09:11:57.960Z,6.50
2018-01-14T09:12:57.955Z,5.90
2018-01-14T09:13:57.947Z,6.00
2018-01-14T09:14:57.941Z,6.60
2018-01-14T09:15:57.933Z,6.70
2018-01-14T09:16:57.927Z,5.70
2018-01-14T09:17:57.919Z,6.60
2018-01-14T09:18:57.913Z,6.40
2018-01-14T09:19:57.906Z,6.70
2018-01-14T09:20:57.898Z,6.30
2018-01-14T09:21:57.891Z,7.00
2018-01-14T09:22:57.884Z,7.40
2018-01-14T09:23:57.878Z,7.80
2018-01-14T09:24:57.871Z,8.00
2018-01-14T09:25:57.864Z,6.80
2018-01-14T09:26:57.858Z,7.70
2018-01-14T09:27:57.849Z,6.80
2018-01-14T09:28:57.842Z,6.00
2018-01-14T09:29:57.836Z,7.80
2018-01-14T09:30:57.829Z,7.10
2018-01-14T09:31:57.822Z,6.90
2018-01-14T09:32:57.815Z,6.40
2018-01-14T09:33:57.809Z,6.40
2018-01-14T09:34:57.808Z,6.80
2018-01-14T09:35:57.795Z,7.90
2018-01-14T09:36:57.788Z,6.60
2018-01-14T09:37:57.782Z,6.50
2018-01-14T09:38:57.775Z,5.90
2018-01-14T09:39:57.768Z,6.00
2018-01-14T09:40:57.760Z,7.10
2018-01-14T09:41:57.754Z,6.90
2018-01-14T09:42:57.748Z,7.30
2018-01-14T09:43:57.740Z,5.90
2018-01-14T09:44:57.734Z,6.40
2018-01-14T09:45:57.731Z,6.40
2018-01-14T09:46:57.720Z,6.20
2018-01-14T09:47:57.714Z,6.20
2018-01-14T09:48:57.706Z,7.00
2018-01-14T09:49:57.701Z,5.80
2018-01-14T09:50:57.694Z,7.30
2018-01-14T09:51:57.687Z,6.80
2018-01-14T09:52:57.679Z,7.50
2018-01-14T09:53:57.674Z,7.30
2018-01-14T09:54:57.667Z,8.40
2018-01-14T09:55:57.659Z,9.50
2018-01-14T09:56:57.652Z,8.90
2018-01-14T09:57:57.646Z,10.70
2018-01-14T09:58:57.641Z,10.20
2018-01-14T09:59:57.632Z,13.60
2018-01-14T10:00:57.625Z,14.60
2018-01-14T10:01:57.619Z,12.40
2018-01-14T10:02:57.613Z,12.70
2018-01-14T10:03:57.606Z,11.40
2018-01-14T10:04:57.604Z,12.00
2018-01-14T10:05:57.594Z,12.70
2018-01-14T10:06:57.587Z,12.50
2018-01-14T10:07:57.581Z,12.40
2018-01-14T10:08:57.585Z,11.50
2018-01-14T10:09:57.567Z,12.20
2018-01-14T10:10:57.561Z,12.80
2018-01-14T10:11:57.557Z,11.60
2018-01-14T10:12:57.549Z,12.50
2018-01-14T10:13:57.541Z,12.30
2018-01-14T10:14:57.536Z,11.50
2018-01-14T10:15:57.531Z,10.10
2018-01-14T10:16:57.523Z,10.20
2018-01-14T10:17:57.516Z,8.80
2018-01-14T10:18:57.511Z,7.30
2018-01-14T10:19:57.505Z,6.70
2018-01-14T10:20:57.499Z,7.60
2018-01-14T10:21:57.492Z,7.20
2018-01-14T10:22:57.487Z,7.00
2018-01-14T10:23:57.481Z,7.30
2018-01-14T10:24:57.474Z,7.70
2018-01-14T10:25:57.469Z,7.40
2018-01-14T10:26:57.463Z,8.10
2018-01-14T10:27:57.455Z,8.30
2018-01-14T10:28:57.450Z,7.60
2018-01-14T10:29:57.443Z,8.80
2018-01-14T10:30:57.437Z,8.40
2018-01-14T10:31:57.433Z,8.40
2018-01-14T10:32:57.426Z,8.00
2018-01-14T10:33:57.420Z,7.40
2018-01-14T10:34:57.414Z,7.80
2018-01-14T10:35:57.413Z,7.30
2018-01-14T10:36:57.403Z,8.00
2018-01-14T10:37:57.397Z,7.30
2018-01-14T10:38:57.390Z,8.20
2018-01-14T10:39:57.384Z,8.00
2018-01-14T10:40:57.378Z,7.80
2018-01-14T10:41:57.372Z,8.40
2018-01-14T10:42:57.367Z,7.50
2018-01-14T10:43:57.361Z,7.80
2018-01-14T10:44:57.387Z,8.00
2018-01-14T10:45:57.352Z,8.60
2018-01-14T10:46:57.348Z,9.10
2018-01-14T10:47:57.338Z,9.10
2018-01-14T10:48:57.333Z,8.20
2018-01-14T10:49:57.328Z,8.30
2018-01-14T10:50:57.322Z,8.50
2018-01-14T10:51:57.315Z,9.60
2018-01-14T10:52:57.313Z,9.70
2018-01-14T10:53:57.305Z,11.40
2018-01-14T10:54:57.300Z,10.70
2018-01-14T10:55:57.293Z,10.40
2018-01-14T10:56:57.289Z,11.50
2018-01-14T10:57:57.282Z,9.90
2018-01-14T10:58:57.278Z,9.40
2018-01-14T10:59:57.273Z,8.90
2018-01-14T11:00:57.267Z,9.80
2018-01-14T11:01:57.262Z,9.40
2018-01-14T11:02:57.257Z,9.90
2018-01-14T11:03:57.251Z,10.40
2018-01-14T11:04:57.244Z,9.60
2018-01-14T11:05:57.240Z,8.80
2018-01-14T11:06:57.233Z,9.70
2018-01-14T11:07:57.227Z,10.10
2018-01-14T11:08:57.227Z,10.30
2018-01-14T11:09:57.216Z,9.50
2018-01-14T11:10:57.211Z,9.70
2018-01-14T11:11:57.205Z,10.10
2018-01-14T11:12:57.201Z,10.10
2018-01-14T11:13:57.195Z,11.30
2018-01-14T11:14:57.191Z,11.40
2018-01-14T11:15:57.183Z,11.20
2018-01-14T11:16:57.180Z,10.20
2018-01-14T11:17:57.174Z,11.10
2018-01-14T11:18:57.169Z,12.10
2018-01-14T11:19:57.163Z,10.80
2018-01-14T11:20:57.158Z,10.10
2018-01-14T11:21:57.153Z,11.20
2018-01-14T11:22:57.148Z,11.10
2018-01-14T11:23:57.141Z,11.00
2018-01-14T11:24:57.136Z,12.80
2018-01-14T11:25:57.132Z,15.10
2018-01-14T11:26:57.127Z,16.50
2018-01-14T11:27:57.121Z,12.80
2018-01-14T11:28:57.115Z,11.50
2018-01-14T11:29:57.110Z,11.60
2018-01-14T11:30:57.105Z,11.80
2018-01-14T11:31:57.100Z,10.80
2018-01-14T11:32:57.095Z,11.70
2018-01-14T11:33:57.090Z,11.30
2018-01-14T11:34:57.085Z,11.40
2018-01-14T11:35:57.079Z,11.60
2018-01-14T11:36:57.074Z,11.50
2018-01-14T11:37:57.070Z,11.50
2018-01-14T11:38:57.064Z,12.60
2018-01-14T11:39:57.060Z,13.50
2018-01-14T11:40:57.053Z,12.30
2018-01-14T11:41:57.049Z,12.50
2018-01-14T11:42:57.044Z,12.50
2018-01-14T11:43:57.038Z,12.30
2018-01-14T11:44:57.033Z,13.10
2018-01-14T11:45:57.029Z,12.10
2018-01-14T11:46:57.024Z,11.90
2018-01-14T11:47:57.021Z,11.70
2018-01-14T11:48:57.014Z,11.90
2018-01-14T11:49:57.011Z,11.30
2018-01-14T11:50:57.003Z,11.80
2018-01-14T11:51:57.033Z,12.30
2018-01-14T11:52:56.998Z,11.70
2018-01-14T11:53:56.987Z,11.50
2018-01-14T11:54:56.983Z,12.70
2018-01-14T11:55:56.977Z,11.90
2018-01-14T11:56:56.973Z,12.30
2018-01-14T11:57:56.969Z,13.00
2018-01-14T11:58:56.964Z,12.80
2018-01-14T11:59:56.958Z,11.90
2018-01-14T12:00:56.952Z,12.10
2018-01-14T12:01:57.012Z,12.50
2018-01-14T12:02:56.942Z,12.30
2018-01-14T12:03:56.936Z,12.40
2018-01-14T12:04:56.933Z,10.90
2018-01-14T12:05:56.928Z,10.50
2018-01-14T12:06:56.923Z,10.50
2018-01-14T12:07:56.940Z,11.30
2018-01-14T12:08:56.914Z,11.10
2018-01-14T12:09:56.907Z,11.70
2018-01-14T12:10:56.904Z,11.90
2018-01-14T12:11:56.897Z,11.30
2018-01-14T12:12:56.894Z,11.40
2018-01-14T12:13:56.889Z,12.10
2018-01-14T12:14:56.883Z,11.80
2018-01-14T12:15:56.877Z,11.10
2018-01-14T12:16:56.873Z,11.60
2018-01-14T12:17:56.869Z,12.50
2018-01-14T12:18:56.865Z,11.20
2018-01-14T12:19:56.858Z,11.50
2018-01-14T12:20:56.853Z,12.30
2018-01-14T12:21:56.848Z,12.10
2018-01-14T12:22:56.844Z,12.30
2018-01-14T12:23:56.839Z,11.20
2018-01-14T12:24:56.834Z,12.80
2018-01-14T12:25:56.831Z,10.80
2018-01-14T12:26:56.825Z,10.90
2018-01-14T12:27:56.818Z,11.20
2018-01-14T12:28:56.814Z,12.10
2018-01-14T12:29:56.809Z,13.00
2018-01-14T12:30:56.806Z,12.30
2018-01-14T12:31:56.800Z,12.00
2018-01-14T12:32:56.794Z,11.10
2018-01-14T12:33:56.790Z,11.20
2018-01-14T12:34:56.785Z,11.50
2018-01-14T12:35:56.779Z,10.90
2018-01-14T12:36:56.774Z,9.90
2018-01-14T12:37:56.770Z,11.20
2018-01-14T12:38:56.764Z,9.70
2018-01-14T12:39:56.760Z,11.50
2018-01-14T12:40:56.754Z,11.90
2018-01-14T12:41:56.750Z,10.70
2018-01-14T12:42:56.748Z,10.80
2018-01-14T12:43:56.738Z,10.90
2018-01-14T12:44:56.736Z,9.80
2018-01-14T12:45:56.728Z,9.50
2018-01-14T12:46:56.724Z,10.60
2018-01-14T12:47:56.718Z,12.00
2018-01-14T12:48:56.715Z,11.70
2018-01-14T12:49:56.708Z,11.20
2018-01-14T12:50:56.705Z,10.60
2018-01-14T12:51:56.699Z,10.70
2018-01-14T12:52:56.693Z,11.70
2018-01-14T12:53:56.690Z,11.40
2018-01-14T12:54:56.684Z,12.30
2018-01-14T12:55:56.678Z,11.60
2018-01-14T12:56:56.674Z,10.70
2018-01-14T12:57:56.668Z,11.30
2018-01-14T12:58:56.664Z,10.00
2018-01-14T12:59:56.658Z,10.80
2018-01-14T13:00:56.653Z,10.50
2018-01-14T13:01:56.649Z,11.00
2018-01-14T13:02:56.645Z,11.90
2018-01-14T13:03:56.638Z,11.40
2018-01-14T13:04:56.633Z,10.80
2018-01-14T13:05:56.630Z,12.30
2018-01-14T13:06:56.624Z,11.30
2018-01-14T13:07:56.618Z,11.20
2018-01-14T13:08:56.613Z,10.70
2018-01-14T13:09:56.608Z,10.80
2018-01-14T13:10:56.602Z,11.50
2018-01-14T13:11:56.596Z,10.80
2018-01-14T13:12:56.592Z,12.00